Station info - map view · info · telemetry · weather · raw · status · beacons · messages · bulletins · browse · moving · my account
Callsign, ship name or locator: Clear       
It is possible to search using wildcards (*?) after a prefix. Example: OH*
APRS station BM1CDP-8 - show graphs
Map loading...
Comment: Trackuino Keelung GPS=9 4.77V
Last status: 基隆 4.79V
Location: 25°08.70' N 121°44.32' E - locator PL05UD84PT - show map - static map
1.2 miles North bearing 350° from Keelung, Keelung, Taiwan, Taiwan [?]
14.6 miles Northeast bearing 63° from Taipei, Taipei, Taiwan
95.6 miles Northeast bearing 44° from Taichung, T’ai-chung Hsien, Taiwan, Taiwan
Last position: 2020-03-29 08:31:29 EDT (37s ago)
2020-03-29 20:31:29 CST local time at Keelung, Taiwan [?]
Altitude: 75 ft
Course:
Speed: 0 MPH
Device: Unknown: Unknown
Last path: BM1CDP-8>APRS via WIDE1-1,WIDE2-1,qAS,BM1CCR-10 (good)
Positions stored: 90928
Packet rate: 40 seconds between packets on average during 840 seconds.
Other SSIDs: BM1CDP-11
Stations near current position of BM1CDP-8 - show more
callsign distance last heard - EDT      callsign distance last heard - EDT
BM2MIR-7109.8 yards 318°2020-03-10 22:42:14 BM2NOR-7152.7 yards 323°2020-03-11 02:35:48
BM1CCR465.1 yards 296°2020-03-20 23:50:59 BM1CCR-6476.3 yards 293°2020-03-29 08:05:59
BM1CFF-7484.6 yards 295°2020-03-07 15:15:54 TIPM NO.127010.6 miles 46°2020-03-03 21:10:23
TIPM NO.127020.6 miles 44°2020-03-03 21:36:25 HMM BLESSING0.8 miles 69°2020-03-02 22:38:41
DERYOUNG SUCCESS0.8 miles 125°2020-03-03 03:48:23 BM1CHT-70.8 miles 247°2020-03-28 19:33:20
XIAO JIANG0.9 miles 77°2020-03-03 09:36:42 KMTC SINGAPORE0.9 miles 56°2020-03-03 08:32:59
YUSHO STELLA0.9 miles 47°2020-03-02 21:47:39 WAN HAI 2350.9 miles 93°2020-03-03 03:38:30
YM IDEALS0.9 miles 79°2020-03-03 03:52:23 004161813 TW0.9 miles 39°2020-03-03 09:03:10
TIPM NO.150021.0 miles 90°2020-03-03 05:11:30 BM1CCR-131.0 miles 210°2020-03-29 08:27:50
BV1EQ-51.1 miles 157°2020-03-03 03:40:05 KEELUNG PILOT 121.1 miles 58°2020-03-03 05:26:44
Stations which heard BM1CDP-8 directly on radio –
callsign pkts first heard - EDT last heard longest (tx => rx) longest at - EDT
BM1CDP-11 3623 2020-03-01 01:12:11 2020-03-29 08:26:10 PL05QB > PL05WC 29.0 miles 84° 2020-03-26 12:49:30
BV2QS-10 590 2020-03-01 02:01:28 2020-03-26 12:58:49 PL05SE > PL05SA 11.3 miles 182° 2020-03-22 07:08:19
BM3HLO 13 2020-03-01 06:35:21 2020-03-01 07:15:20 PL05SD > PL04MS 40.1 miles 229° 2020-03-01 07:12:40
BX2AEA-10 104 2020-03-01 06:38:01 2020-03-23 05:27:42 PL05SE > PL05SB 10.0 miles 165° 2020-03-22 04:44:22
BX1AC-10 1 2020-03-01 06:33:20 2020-03-01 06:33:20 PL05SD > PL04VP 37.1 miles 155° 2020-03-01 06:33:20
BM2MCF-12 523 2020-03-01 01:47:30 2020-03-28 07:52:56 PL05VD > PL04QX 26.1 miles 249° 2020-03-09 03:31:04
BM1CDD-10 38 2020-03-01 02:03:28 2020-03-23 02:59:06 PL05SD > PL05SA 7.0 miles 186° 2020-03-01 07:11:20
BM2MWA-10 30 2020-03-01 02:04:08 2020-03-26 12:02:11 PL05RB > PL05SB 3.3 miles 96° 2020-03-26 12:02:11
BV5D0-15 1 2020-03-22 06:11:42 2020-03-22 06:11:42 PL05SE > PL03HU 107.4 miles 212° 2020-03-22 06:11:42
BM2MIM-11 14 2020-03-22 04:46:24 2020-03-22 07:06:21 PL05SE > PL05PC 18.3 miles 249° 2020-03-22 04:46:24
BV3BA-10 8 2020-03-22 04:54:22 2020-03-22 06:12:17 PL05SE > PL04MS 41.8 miles 230° 2020-03-22 06:12:17
BM2IBW-2 11 2020-03-01 06:27:21 2020-03-26 12:46:50 PL05SD > PL05QB 13.8 miles 243° 2020-03-22 04:37:03
BX2ADJ-2 4 2020-03-01 06:42:01 2020-03-08 05:09:00 PL05SD > PL05RA 9.7 miles 208° 2020-03-01 06:46:01
BM2LBC-12 177 2020-03-01 02:14:48 2020-03-26 12:10:11 PL05SE > PL05RA 13.7 miles 212° 2020-03-22 04:42:22
BV5PD-1 9 2020-03-22 05:05:42 2020-03-22 06:55:00 PL05SE > PL05PA 19.6 miles 236° 2020-03-22 06:55:00
BU2DR-4 111 2020-03-01 02:16:08 2020-03-26 12:43:30 PL05SE > PL04RW 16.1 miles 196° 2020-03-22 06:15:41
BU2DI-7 56 2020-03-01 01:54:51 2020-03-26 09:10:17 PL05SE > PL05SB 9.9 miles 159° 2020-03-22 06:57:42
BX3ACQ-10 18 2020-03-01 06:47:21 2020-03-22 06:53:00 PL05SE > PL04PW 23.4 miles 224° 2020-03-22 04:41:02
BM1CCR-10 72 2020-03-29 03:15:38 2020-03-29 08:31:29 PL05UD > PL05VD 3.3 miles 87° 2020-03-29 03:26:18

Only position packets which were originated by the station are shown here. The range statistics show some extra long hops, because some digipeaters do not correctly add themselves to the digipeater path. Please check the raw packets.
About this site
This page shows real-time information collected from the Automatic Position Reporting System Internet network (APRS-IS). APRS is used by amateur (ham) radio operators to transmit real-time position information, weather data, telemetry and messages over the radio. A vehicle equipped with a GPS receiver, a VHF transmitter or HF transceiver and a small computer device called a tracker transmits it's location, speed and course in a small data packet, which is then received by a nearby iGate receiving site which forwards the packet on the Internet. Systems connected to the Internet can send information on the APRS-IS without a radio transmitter, or collect and display information transmitted anywhere in the world.
User guide · FAQ · Blog · Discussion group · Linking to aprs.fi · AIS sites · Service status · Database statistics · Advertising on aprs.fi · Technical details · API · Change log · Planned changes · Credits and thanks · Terms Of Service · iPhone/iPad APRS